This is the latest recevied weather packets stored in our database for station/object SQ6RR-11. If no packets are shown the sender has not sent any weather packets the latest 10 day(s).
| Time | Temp. | Humidity | Pressure | Rain* | Wind** | Luminosity | Snow |
|---|---|---|---|---|---|---|---|
| 1777457595 | 7.78° C | 25% | 1028.6 hPa | 0 mm | - | - | - |
| 1777457320 | 8.33° C | 27% | 1028.6 hPa | 0 mm | - | - | - |
| 1777457070 | 7.78° C | 27% | 1028.6 hPa | 0 mm | - | - | - |
| 1777456779 | 7.78° C | 28% | 1028.6 hPa | 0 mm | - | - | - |
| 1777456502 | 7.22° C | 28% | 1028.7 hPa | 0 mm | - | - | - |
| 1777456243 | 7.22° C | 27% | 1028.7 hPa | 0 mm | - | - | - |
| 1777455968 | 7.22° C | 26% | 1028.7 hPa | 0 mm | - | - | - |
| 1777455723 | 7.78° C | 29% | 1028.6 hPa | 0 mm | - | - | - |
| 1777455437 | 7.22° C | 26% | 1028.7 hPa | 0 mm | - | - | - |
| 1777455167 | 7.22° C | 28% | 1028.7 hPa | 0 mm | - | - | - |
| 1777454893 | 6.67° C | 28% | 1028.7 hPa | 0 mm | - | - | - |
| 1777454636 | 6.67° C | 27% | 1028.7 hPa | 0 mm | - | - | - |
| 1777454362 | 6.67° C | 28% | 1028.8 hPa | 0 mm | - | - | - |
| 1777454091 | 6.67° C | 30% | 1028.8 hPa | 0 mm | - | - | - |
| 1777453823 | 6.67° C | 31% | 1028.7 hPa | 0 mm | - | - | - |
| 1777453550 | 6.67° C | 31% | 1028.7 hPa | 0 mm | - | - | - |
| 1777453258 | 6.67° C | 34% | 1028.8 hPa | 0 mm | - | - | - |
| 1777452983 | 6.67° C | 34% | 1028.8 hPa | 0 mm | - | - | - |
| 1777452698 | 6.67° C | 34% | 1028.9 hPa | 0 mm | - | - | - |
| 1777452438 | 6.67° C | 35% | 1028.8 hPa | 0 mm | - | - | - |
| 1777452173 | 6.67° C | 36% | 1028.8 hPa | 0 mm | - | - | - |
| 1777451907 | 6.11° C | 35% | 1028.8 hPa | 0 mm | - | - | - |
| 1777451643 | 6.11° C | 36% | 1028.8 hPa | 0 mm | - | - | - |
| 1777451376 | 6.11° C | 36% | 1028.9 hPa | 0 mm | - | - | - |
| 1777451097 | 5.56° C | 36% | 1028.8 hPa | 0 mm | - | - | - |
* Rain latest hour (hover to see other rain measurements)
** Current wind speed in m/s (hover to see current wind gust speed)